createdAt,value
2018-06-15T00:00:16.169Z,17.90
2018-06-15T00:02:51.403Z,17.90
2018-06-15T00:05:20.703Z,18.00
2018-06-15T00:07:50.061Z,17.80
2018-06-15T00:10:19.681Z,17.80
2018-06-15T00:12:49.059Z,17.80
2018-06-15T00:15:19.811Z,17.80
2018-06-15T00:17:49.159Z,17.90
2018-06-15T00:20:18.506Z,18.00
2018-06-15T00:22:47.810Z,17.90
2018-06-15T00:25:17.098Z,17.80
2018-06-15T00:27:46.378Z,17.70
2018-06-15T00:30:15.928Z,17.70
2018-06-15T00:32:46.066Z,17.70
2018-06-15T00:35:15.394Z,17.70
2018-06-15T00:37:44.714Z,17.80
2018-06-15T00:40:14.034Z,17.80
2018-06-15T00:54:47.339Z,17.70
2018-06-15T00:57:28.082Z,17.70
2018-06-15T00:59:57.461Z,17.10
2018-06-15T01:02:26.740Z,16.90
2018-06-15T01:04:56.154Z,16.90
2018-06-15T01:07:25.625Z,16.90
2018-06-15T01:09:55.090Z,17.10
2018-06-15T01:12:24.601Z,17.20
2018-06-15T01:14:54.094Z,17.20
2018-06-15T01:17:23.558Z,17.20
2018-06-15T01:19:52.924Z,17.30
2018-06-15T01:22:22.979Z,17.30
2018-06-15T01:24:52.444Z,17.30
2018-06-15T01:27:21.806Z,17.40
2018-06-15T01:29:51.282Z,17.40
2018-06-15T01:32:20.672Z,17.50
2018-06-15T01:37:19.166Z,17.50
2018-06-15T01:39:48.529Z,17.40
2018-06-15T01:42:18.050Z,17.40
2018-06-15T01:44:47.382Z,17.40
2018-06-15T01:47:16.718Z,17.40
2018-06-15T02:01:22.737Z,17.40
2018-06-15T02:03:52.346Z,17.30
2018-06-15T02:06:21.836Z,16.90
2018-06-15T02:11:20.370Z,17.00
2018-06-15T02:13:49.719Z,17.00
2018-06-15T02:16:19.106Z,17.00
2018-06-15T02:18:48.455Z,17.10
2018-06-15T02:44:05.138Z,17.20
2018-06-15T02:46:34.889Z,17.30
2018-06-15T02:49:04.378Z,16.80
2018-06-15T02:54:03.232Z,16.90
2018-06-15T02:56:32.757Z,16.90
2018-06-15T02:59:02.131Z,17.00
2018-06-15T03:01:31.582Z,17.00
2018-06-15T03:04:01.962Z,17.10
2018-06-15T03:06:31.257Z,17.10
2018-06-15T03:09:00.568Z,17.20
2018-06-15T03:11:29.899Z,17.20
2018-06-15T03:13:59.358Z,17.20
2018-06-15T03:16:28.670Z,17.30
2018-06-15T03:18:58.018Z,17.30
2018-06-15T03:21:27.366Z,17.30
2018-06-15T03:23:56.858Z,17.40
2018-06-15T03:26:26.206Z,17.40
2018-06-15T03:28:55.626Z,17.40
2018-06-15T03:31:25.114Z,17.40
2018-06-15T03:33:54.470Z,17.40
2018-06-15T03:36:23.947Z,17.30
2018-06-15T03:38:53.446Z,17.30
2018-06-15T03:41:22.945Z,17.30
2018-06-15T03:43:52.419Z,17.30
2018-06-15T03:46:21.772Z,17.40
2018-06-15T03:48:51.394Z,17.30
2018-06-15T03:51:23.451Z,17.40
2018-06-15T03:53:52.818Z,17.30
2018-06-15T03:56:22.175Z,17.30
2018-06-15T04:01:38.126Z,17.30
2018-06-15T04:04:07.630Z,17.20
2018-06-15T04:06:37.018Z,17.20
2018-06-15T04:09:08.761Z,17.20
2018-06-15T04:11:38.589Z,17.10
2018-06-15T04:18:06.015Z,17.20
2018-06-15T04:20:36.825Z,17.20
2018-06-15T04:25:35.419Z,17.10
2018-06-15T04:28:04.895Z,17.20
2018-06-15T04:30:34.315Z,17.20
2018-06-15T04:33:03.787Z,17.20
2018-06-15T04:35:34.166Z,17.20
2018-06-15T04:38:03.569Z,17.30
2018-06-15T04:40:32.944Z,17.30
2018-06-15T04:43:02.555Z,17.30
2018-06-15T04:45:32.077Z,17.40
2018-06-15T04:48:01.468Z,17.40
2018-06-15T04:50:30.866Z,17.30
2018-06-15T04:53:00.919Z,17.50
2018-06-15T04:55:30.301Z,17.50
2018-06-15T04:57:59.706Z,17.50
2018-06-15T05:00:29.395Z,17.60
2018-06-15T05:02:59.078Z,17.60
2018-06-15T05:05:28.591Z,17.70
2018-06-15T05:07:59.078Z,17.80
2018-06-15T05:13:05.150Z,17.90
2018-06-15T05:15:34.618Z,17.80
2018-06-15T05:18:04.219Z,17.90
2018-06-15T05:20:33.934Z,18.00
2018-06-15T05:23:03.594Z,18.10
2018-06-15T05:25:33.048Z,18.20
2018-06-15T05:28:02.586Z,18.30
2018-06-15T05:30:31.950Z,18.40
2018-06-15T05:33:01.426Z,18.50
2018-06-15T05:35:30.735Z,18.60
2018-06-15T05:38:00.059Z,18.70
2018-06-15T05:40:30.156Z,18.70
2018-06-15T05:42:59.562Z,18.70
2018-06-15T05:45:28.910Z,18.70
2018-06-15T05:47:58.410Z,18.70
2018-06-15T05:52:56.620Z,18.90
2018-06-15T05:55:25.980Z,19.00
2018-06-15T05:57:55.648Z,19.10
2018-06-15T06:00:26.171Z,19.20
2018-06-15T06:02:55.706Z,19.20
2018-06-15T06:05:25.215Z,19.30
2018-06-15T06:07:56.114Z,19.30
2018-06-15T06:10:25.643Z,19.30
2018-06-15T06:12:55.200Z,19.30
2018-06-15T06:15:24.490Z,19.40
2018-06-15T06:17:53.822Z,19.50
2018-06-15T06:20:23.142Z,19.60
2018-06-15T06:22:52.728Z,19.60
2018-06-15T06:25:22.212Z,19.70
2018-06-15T06:27:51.766Z,19.80
2018-06-15T06:30:21.122Z,19.90
2018-06-15T06:32:50.439Z,20.10
2018-06-15T06:39:06.539Z,20.10
2018-06-15T06:41:35.965Z,20.10
2018-06-15T06:44:05.327Z,20.10
2018-06-15T06:46:34.822Z,20.10
2018-06-15T06:49:04.330Z,20.10
2018-06-15T06:51:35.184Z,20.10
2018-06-15T06:54:04.495Z,20.20
2018-06-15T06:56:33.874Z,20.50
2018-06-15T06:59:03.406Z,20.70
2018-06-15T07:01:32.731Z,21.00
2018-06-15T07:04:02.094Z,21.40
2018-06-15T07:06:31.560Z,21.80
2018-06-15T07:09:01.030Z,22.20
2018-06-15T07:11:30.367Z,22.80
2018-06-15T07:13:59.680Z,23.10
2018-06-15T07:16:31.203Z,23.20
2018-06-15T07:19:02.266Z,23.20
2018-06-15T07:21:31.566Z,23.20
2018-06-15T07:24:01.100Z,23.40
2018-06-15T07:26:30.579Z,23.80
2018-06-15T07:29:00.057Z,24.20
2018-06-15T07:31:29.398Z,24.70
2018-06-15T07:33:58.742Z,25.20
2018-06-15T07:36:28.047Z,25.70
2018-06-15T07:38:57.396Z,25.90
2018-06-15T07:41:26.727Z,26.20
2018-06-15T07:43:56.026Z,26.20
2018-06-15T07:46:27.238Z,26.40
2018-06-15T07:51:25.506Z,26.70
2018-06-15T07:53:58.098Z,26.90
2018-06-15T07:56:27.520Z,26.80
2018-06-15T07:58:56.890Z,26.70
2018-06-15T08:01:26.214Z,26.70
2018-06-15T08:03:57.778Z,26.70
2018-06-15T08:06:27.162Z,26.40
2018-06-15T08:08:56.763Z,26.30
2018-06-15T08:11:26.071Z,26.20
2018-06-15T08:13:55.571Z,26.00
2018-06-15T08:16:24.965Z,25.80
2018-06-15T08:18:55.153Z,25.60
2018-06-15T08:21:24.676Z,25.40
2018-06-15T08:23:54.067Z,25.30
2018-06-15T08:26:23.483Z,25.20
2018-06-15T08:28:52.963Z,25.00
2018-06-15T08:31:23.326Z,24.70
2018-06-15T08:33:52.603Z,24.50
2018-06-15T08:36:21.982Z,24.20
2018-06-15T08:38:51.242Z,24.10
2018-06-15T08:41:20.726Z,23.90
2018-06-15T08:43:50.102Z,23.80
2018-06-15T08:46:21.282Z,23.70
2018-06-15T08:48:50.618Z,23.60
2018-06-15T08:51:19.981Z,23.60
2018-06-15T08:53:49.270Z,23.70
2018-06-15T08:56:18.589Z,23.70
2018-06-15T08:58:47.878Z,23.60
2018-06-15T09:01:17.582Z,23.70
2018-06-15T09:03:47.042Z,23.50
2018-06-15T09:06:16.427Z,23.30
2018-06-15T09:11:15.786Z,23.10
2018-06-15T09:22:50.374Z,23.20
2018-06-15T09:25:19.698Z,23.40
2018-06-15T09:27:49.194Z,23.70
2018-06-15T09:30:18.538Z,23.90
2018-06-15T09:32:47.892Z,24.00
2018-06-15T09:35:17.198Z,24.20
2018-06-15T09:40:17.387Z,23.90
2018-06-15T09:42:47.146Z,23.80
2018-06-15T09:45:17.422Z,23.80
2018-06-15T09:47:47.050Z,23.80
2018-06-15T09:50:16.422Z,23.70
2018-06-15T09:52:47.888Z,23.80
2018-06-15T09:55:17.238Z,23.90
2018-06-15T09:57:47.106Z,24.00
2018-06-15T10:00:21.720Z,24.10
2018-06-15T10:02:51.187Z,24.20
2018-06-15T10:05:20.680Z,24.30
2018-06-15T10:07:50.183Z,24.20
2018-06-15T10:10:19.526Z,24.20
2018-06-15T10:12:48.804Z,24.10
2018-06-15T10:15:18.186Z,24.00
2018-06-15T10:17:47.470Z,24.00
2018-06-15T10:20:19.231Z,23.90
2018-06-15T10:22:48.750Z,23.90
2018-06-15T10:25:18.099Z,23.90
2018-06-15T10:27:47.430Z,24.00
2018-06-15T10:30:16.795Z,24.20
2018-06-15T10:32:47.119Z,24.10
2018-06-15T10:35:16.472Z,24.10
2018-06-15T10:37:45.758Z,24.20
2018-06-15T10:40:15.182Z,24.30
2018-06-15T10:42:44.647Z,24.30
2018-06-15T10:45:15.044Z,24.40
2018-06-15T10:47:44.651Z,24.40
2018-06-15T10:50:14.034Z,24.50
2018-06-15T10:52:43.334Z,24.50
2018-06-15T10:55:12.640Z,24.50
2018-06-15T10:57:42.150Z,24.20
2018-06-15T11:00:11.490Z,24.20
2018-06-15T11:02:40.970Z,24.20
2018-06-15T11:05:10.462Z,24.20
2018-06-15T11:07:40.043Z,24.30
2018-06-15T11:10:09.406Z,24.30
2018-06-15T11:12:38.718Z,24.30
2018-06-15T11:15:08.066Z,24.30
2018-06-15T11:17:37.370Z,24.30
2018-06-15T11:20:06.722Z,24.30
2018-06-15T11:22:36.166Z,24.20
2018-06-15T11:25:05.631Z,24.00
2018-06-15T11:27:35.087Z,24.10
2018-06-15T11:30:04.941Z,24.20
2018-06-15T11:32:34.262Z,24.30
2018-06-15T11:35:05.183Z,24.20
2018-06-15T11:37:34.519Z,24.20
2018-06-15T11:40:04.036Z,24.30
2018-06-15T11:42:33.481Z,24.30
2018-06-15T11:45:03.043Z,24.40
2018-06-15T11:47:32.634Z,24.40
2018-06-15T11:50:01.958Z,24.30
2018-06-15T11:52:31.282Z,23.90
2018-06-15T11:55:00.584Z,23.90
2018-06-15T11:57:29.907Z,24.00
2018-06-15T11:59:59.231Z,24.10
2018-06-15T12:02:28.744Z,24.20
2018-06-15T12:04:59.584Z,24.40
2018-06-15T12:07:28.995Z,24.60
2018-06-15T12:09:58.327Z,24.60
2018-06-15T12:12:27.682Z,24.70
2018-06-15T12:14:57.007Z,24.80
2018-06-15T12:17:26.366Z,24.80
2018-06-15T12:19:55.886Z,24.70
2018-06-15T12:22:25.250Z,24.70
2018-06-15T12:24:55.079Z,24.60
2018-06-15T12:27:24.458Z,24.70
2018-06-15T12:29:53.842Z,24.60
2018-06-15T12:32:23.272Z,24.70
2018-06-15T12:34:52.578Z,24.80
2018-06-15T12:37:21.946Z,24.90
2018-06-15T12:39:51.502Z,25.10
2018-06-15T12:42:21.051Z,25.10
2018-06-15T12:44:50.362Z,25.20
2018-06-15T12:47:19.814Z,25.30
2018-06-15T12:49:49.161Z,25.30
2018-06-15T12:52:20.106Z,25.30
2018-06-15T12:54:49.390Z,25.20
2018-06-15T12:57:18.834Z,25.10
2018-06-15T12:59:48.305Z,25.10
2018-06-15T13:02:17.819Z,25.00
2018-06-15T13:04:47.503Z,25.10
2018-06-15T13:07:16.820Z,25.10
2018-06-15T13:09:46.142Z,25.20
2018-06-15T13:12:15.494Z,25.30
2018-06-15T13:14:44.802Z,25.50
2018-06-15T13:17:14.102Z,25.40
2018-06-15T13:19:43.438Z,25.50
2018-06-15T13:22:12.951Z,25.40
2018-06-15T13:24:42.456Z,25.50
2018-06-15T13:27:11.838Z,25.60
2018-06-15T13:29:41.154Z,25.70
2018-06-15T13:32:10.444Z,25.70
2018-06-15T13:34:39.760Z,25.50
2018-06-15T13:37:09.191Z,25.30
2018-06-15T13:39:38.564Z,25.20
2018-06-15T13:42:09.183Z,25.20
2018-06-15T13:44:38.486Z,25.20
2018-06-15T13:47:07.994Z,25.10
2018-06-15T13:49:37.478Z,25.00
2018-06-15T13:52:06.765Z,25.00
2018-06-15T13:57:04.959Z,25.20
2018-06-15T13:59:34.276Z,25.20
2018-06-15T14:02:03.691Z,25.20
2018-06-15T14:04:33.075Z,25.10
2018-06-15T14:07:02.850Z,25.10
2018-06-15T14:09:35.264Z,25.10
2018-06-15T14:12:04.629Z,25.10
2018-06-15T14:14:34.175Z,25.20
2018-06-15T14:19:32.370Z,25.00
2018-06-15T14:22:01.698Z,25.10
2018-06-15T14:24:31.183Z,25.20
2018-06-15T14:29:29.428Z,25.30
2018-06-15T14:31:58.754Z,25.50
2018-06-15T14:34:28.082Z,25.60
2018-06-15T14:36:57.614Z,25.70
2018-06-15T14:39:26.947Z,25.70
2018-06-15T14:41:56.290Z,25.70
2018-06-15T14:44:25.690Z,25.60
2018-06-15T14:46:55.496Z,25.70
2018-06-15T14:49:24.851Z,25.80
2018-06-15T14:51:54.307Z,25.80
2018-06-15T14:54:23.606Z,25.80
2018-06-15T14:56:53.046Z,25.80
2018-06-15T14:59:23.310Z,25.90
2018-06-15T15:01:53.126Z,25.90
2018-06-15T15:04:22.470Z,25.80
2018-06-15T15:06:51.898Z,25.90
2018-06-15T15:09:21.366Z,26.00
2018-06-15T15:11:50.670Z,26.00
2018-06-15T15:14:20.111Z,25.90
2018-06-15T15:16:49.683Z,25.90
2018-06-15T15:19:19.048Z,25.90
2018-06-15T15:21:48.818Z,25.90
2018-06-15T15:24:18.326Z,25.90
2018-06-15T15:26:47.738Z,25.60
2018-06-15T15:29:17.366Z,25.60
2018-06-15T15:31:47.716Z,25.50
2018-06-15T15:34:17.027Z,25.40
2018-06-15T15:36:46.594Z,25.40
2018-06-15T15:39:15.903Z,25.40
2018-06-15T15:41:45.424Z,25.50
2018-06-15T15:44:14.734Z,25.50
2018-06-15T15:46:44.173Z,25.50
2018-06-15T15:49:14.111Z,25.60
2018-06-15T15:51:43.501Z,25.60
2018-06-15T15:54:12.792Z,25.60
2018-06-15T15:56:42.091Z,25.60
2018-06-15T15:59:11.435Z,25.60
2018-06-15T16:01:40.887Z,25.70
2018-06-15T16:04:10.243Z,25.70
2018-06-15T16:06:39.672Z,25.60
2018-06-15T16:09:09.783Z,25.60
2018-06-15T16:11:39.101Z,25.60
2018-06-15T16:14:08.486Z,25.60
2018-06-15T16:16:39.334Z,25.60
2018-06-15T16:19:08.635Z,25.60
2018-06-15T16:21:38.015Z,25.60
2018-06-15T16:24:07.427Z,25.50
2018-06-15T16:26:36.798Z,25.50
2018-06-15T16:29:06.340Z,25.40
2018-06-15T16:31:35.761Z,25.40
2018-06-15T16:34:05.090Z,25.40
2018-06-15T16:36:34.438Z,25.30
2018-06-15T16:39:04.294Z,25.30
2018-06-15T16:41:33.709Z,25.30
2018-06-15T16:44:03.132Z,25.30
2018-06-15T16:46:32.535Z,25.40
2018-06-15T16:49:01.899Z,25.40
2018-06-15T16:51:31.206Z,25.30
2018-06-15T16:54:00.514Z,25.20
2018-06-15T16:56:29.862Z,25.10
2018-06-15T16:58:59.195Z,25.00
2018-06-15T17:01:28.710Z,24.80
2018-06-15T17:03:58.146Z,24.90
2018-06-15T17:06:29.099Z,24.90
2018-06-15T17:08:58.551Z,24.70
2018-06-15T17:11:27.912Z,24.60
2018-06-15T17:13:57.242Z,24.60
2018-06-15T17:16:26.540Z,24.60
2018-06-15T17:18:55.839Z,24.60
2018-06-15T17:23:54.512Z,24.40
2018-06-15T17:26:23.840Z,24.30
2018-06-15T17:28:53.606Z,24.20
2018-06-15T17:31:22.907Z,24.20
2018-06-15T17:53:31.134Z,24.20
2018-06-15T17:56:00.482Z,24.10
2018-06-15T18:00:58.887Z,22.70
2018-06-15T18:03:28.402Z,22.70
2018-06-15T18:05:57.931Z,22.80
2018-06-15T18:08:27.316Z,22.80
2018-06-15T18:10:56.618Z,22.90
2018-06-15T18:13:28.846Z,22.80
2018-06-15T18:15:58.150Z,22.70
2018-06-15T18:18:27.514Z,22.60
2018-06-15T18:20:56.882Z,22.50
2018-06-15T18:23:26.241Z,22.40
2018-06-15T18:25:55.702Z,22.40
2018-06-15T18:28:25.207Z,22.70
2018-06-15T18:30:54.570Z,22.20
2018-06-15T18:33:23.943Z,22.10
2018-06-15T18:35:53.330Z,22.00
2018-06-15T18:38:22.934Z,22.00
2018-06-15T18:40:52.398Z,21.90
2018-06-15T18:43:21.866Z,21.90
2018-06-15T18:45:51.418Z,21.70
2018-06-15T18:48:20.878Z,21.70
2018-06-15T18:50:50.230Z,21.70
2018-06-15T18:53:19.535Z,21.60
2018-06-15T18:55:48.828Z,21.50
2018-06-15T18:58:18.120Z,21.40
2018-06-15T19:00:48.328Z,21.20
2018-06-15T19:05:46.678Z,20.90
2018-06-15T19:08:16.168Z,20.90
2018-06-15T19:10:45.498Z,20.80
2018-06-15T19:13:14.794Z,20.70
2018-06-15T19:15:44.116Z,20.70
2018-06-15T19:18:13.423Z,20.40
2018-06-15T19:20:42.982Z,20.70
2018-06-15T19:23:12.474Z,20.70
2018-06-15T19:25:42.102Z,20.70
2018-06-15T19:28:11.440Z,20.70
2018-06-15T19:40:54.313Z,20.60
2018-06-15T19:43:23.825Z,20.60
2018-06-15T19:45:53.290Z,20.00
2018-06-15T19:48:22.684Z,19.90
2018-06-15T19:50:52.122Z,19.80
2018-06-15T19:53:21.426Z,19.80
2018-06-15T19:55:50.763Z,19.70
2018-06-15T19:58:20.143Z,19.70
2018-06-15T20:00:49.571Z,19.60
2018-06-15T20:05:48.110Z,19.30
2018-06-15T20:18:49.852Z,19.20
2018-06-15T20:21:19.291Z,19.10
2018-06-15T20:23:48.887Z,18.40
2018-06-15T20:26:18.367Z,18.30
2018-06-15T20:28:48.534Z,18.20
2018-06-15T20:31:17.953Z,18.10
2018-06-15T20:33:48.265Z,18.00
2018-06-15T20:36:17.823Z,18.00
2018-06-15T20:49:10.080Z,17.90
2018-06-15T20:51:40.951Z,17.80
2018-06-15T20:54:10.527Z,17.00
2018-06-15T20:56:40.012Z,16.90
2018-06-15T20:59:09.510Z,16.80
2018-06-15T21:01:39.054Z,16.60
2018-06-15T21:04:08.443Z,16.60
2018-06-15T21:06:37.779Z,16.40
2018-06-15T21:09:08.925Z,16.30
2018-06-15T21:11:38.446Z,16.20
2018-06-15T21:14:07.902Z,16.10
2018-06-15T21:16:37.287Z,16.10
2018-06-15T21:19:06.657Z,15.90
2018-06-15T21:21:36.025Z,15.90
2018-06-15T21:24:05.578Z,15.80
2018-06-15T21:26:35.061Z,15.70
2018-06-15T21:29:04.622Z,15.70
2018-06-15T21:31:34.158Z,15.60
2018-06-15T21:34:03.654Z,15.60
2018-06-15T21:36:33.135Z,15.50
2018-06-15T21:39:02.665Z,15.40
2018-06-15T21:41:32.174Z,15.30
2018-06-15T21:44:01.659Z,15.30
2018-06-15T21:46:30.978Z,15.20
2018-06-15T21:49:00.595Z,15.00
2018-06-15T21:51:29.983Z,14.90
2018-06-15T21:54:00.297Z,14.80
2018-06-15T21:56:29.830Z,14.60
2018-06-15T21:58:59.376Z,14.60
2018-06-15T22:01:29.998Z,14.50
2018-06-15T22:03:59.469Z,14.40
2018-06-15T22:06:28.814Z,14.10
2018-06-15T22:08:58.339Z,13.70
2018-06-15T22:11:27.814Z,13.40
2018-06-15T22:13:57.210Z,13.30
2018-06-15T22:16:29.330Z,13.20
2018-06-15T22:18:58.681Z,13.20
2018-06-15T22:21:29.142Z,13.30
2018-06-15T22:23:58.492Z,13.30
2018-06-15T22:26:27.990Z,13.30
2018-06-15T22:28:57.574Z,13.40
2018-06-15T22:31:27.087Z,13.40
2018-06-15T22:33:56.503Z,13.50
2018-06-15T22:36:25.826Z,13.50
2018-06-15T22:38:55.318Z,13.50
2018-06-15T22:41:24.898Z,13.50
2018-06-15T22:43:54.317Z,13.50
2018-06-15T22:46:23.670Z,13.50
2018-06-15T22:48:54.098Z,13.50
2018-06-15T22:51:23.478Z,13.40
2018-06-15T22:53:52.800Z,13.30
2018-06-15T22:56:22.322Z,13.20
2018-06-15T22:58:51.810Z,13.10
2018-06-15T23:01:21.186Z,13.10
2018-06-15T23:03:50.650Z,13.10
2018-06-15T23:06:20.007Z,13.00
2018-06-15T23:08:49.466Z,13.00
2018-06-15T23:11:18.842Z,13.00
2018-06-15T23:13:48.808Z,13.00
2018-06-15T23:18:48.546Z,12.80
2018-06-15T23:21:17.894Z,12.70
2018-06-15T23:23:47.694Z,12.60
2018-06-15T23:26:17.195Z,12.60
2018-06-15T23:28:46.582Z,12.60
2018-06-15T23:31:16.070Z,12.60
2018-06-15T23:33:45.418Z,12.60
2018-06-15T23:36:14.906Z,12.50
2018-06-15T23:38:44.410Z,12.50
2018-06-15T23:41:13.855Z,12.50
2018-06-15T23:43:43.177Z,12.50
2018-06-15T23:46:12.918Z,12.50
2018-06-15T23:48:42.248Z,12.40
2018-06-15T23:51:12.699Z,12.30
2018-06-15T23:53:42.066Z,12.30
2018-06-15T23:56:11.569Z,12.20
2018-06-15T23:58:41.038Z,12.10
